sensor_id;sensor_type;location;lat;lon;timestamp;temperature;humidity
16289;DHT22;26089;43.538;5.250;2022-07-06T00:00:26;25.00;90.30
16289;DHT22;26089;43.538;5.250;2022-07-06T00:02:53;25.00;90.40
16289;DHT22;26089;43.538;5.250;2022-07-06T00:05:21;25.00;90.30
16289;DHT22;26089;43.538;5.250;2022-07-06T00:07:49;25.00;90.60
16289;DHT22;26089;43.538;5.250;2022-07-06T00:10:16;24.90;90.40
16289;DHT22;26089;43.538;5.250;2022-07-06T00:12:43;24.90;90.70
16289;DHT22;26089;43.538;5.250;2022-07-06T00:15:10;24.90;90.60
16289;DHT22;26089;43.538;5.250;2022-07-06T00:17:37;24.80;90.80
16289;DHT22;26089;43.538;5.250;2022-07-06T00:20:05;24.80;90.90
16289;DHT22;26089;43.538;5.250;2022-07-06T00:22:32;24.80;90.90
16289;DHT22;26089;43.538;5.250;2022-07-06T00:25:00;24.80;91.20
16289;DHT22;26089;43.538;5.250;2022-07-06T00:27:27;24.80;91.10
16289;DHT22;26089;43.538;5.250;2022-07-06T00:29:54;24.70;91.20
16289;DHT22;26089;43.538;5.250;2022-07-06T00:32:21;24.70;91.40
16289;DHT22;26089;43.538;5.250;2022-07-06T00:34:48;24.60;91.50
16289;DHT22;26089;43.538;5.250;2022-07-06T00:37:15;24.50;91.70
16289;DHT22;26089;43.538;5.250;2022-07-06T00:39:42;24.50;91.70
16289;DHT22;26089;43.538;5.250;2022-07-06T00:42:10;24.50;91.90
16289;DHT22;26089;43.538;5.250;2022-07-06T00:44:37;24.40;92.10
16289;DHT22;26089;43.538;5.250;2022-07-06T00:47:04;24.40;92.30
16289;DHT22;26089;43.538;5.250;2022-07-06T00:49:33;24.40;92.30
16289;DHT22;26089;43.538;5.250;2022-07-06T00:52:17;24.30;92.50
16289;DHT22;26089;43.538;5.250;2022-07-06T00:54:45;24.20;92.60
16289;DHT22;26089;43.538;5.250;2022-07-06T00:57:14;24.20;92.70
16289;DHT22;26089;43.538;5.250;2022-07-06T00:59:42;24.30;92.90
16289;DHT22;26089;43.538;5.250;2022-07-06T01:02:09;24.20;93.00
16289;DHT22;26089;43.538;5.250;2022-07-06T01:04:36;24.20;93.10
16289;DHT22;26089;43.538;5.250;2022-07-06T01:07:03;24.10;93.30
16289;DHT22;26089;43.538;5.250;2022-07-06T01:09:31;24.10;93.30
16289;DHT22;26089;43.538;5.250;2022-07-06T01:11:58;24.10;93.40
16289;DHT22;26089;43.538;5.250;2022-07-06T01:14:27;24.10;93.60
16289;DHT22;26089;43.538;5.250;2022-07-06T01:16:54;24.10;93.30
16289;DHT22;26089;43.538;5.250;2022-07-06T01:19:21;24.00;93.30
16289;DHT22;26089;43.538;5.250;2022-07-06T01:21:50;24.00;93.40
16289;DHT22;26089;43.538;5.250;2022-07-06T01:24:17;23.90;93.60
16289;DHT22;26089;43.538;5.250;2022-07-06T01:26:44;23.90;93.70
16289;DHT22;26089;43.538;5.250;2022-07-06T01:29:11;23.90;93.80
16289;DHT22;26089;43.538;5.250;2022-07-06T01:31:45;23.80;94.00
16289;DHT22;26089;43.538;5.250;2022-07-06T01:34:13;23.70;93.80
16289;DHT22;26089;43.538;5.250;2022-07-06T01:36:40;23.70;94.20
16289;DHT22;26089;43.538;5.250;2022-07-06T01:39:09;23.70;94.40
16289;DHT22;26089;43.538;5.250;2022-07-06T01:41:36;23.60;94.30
16289;DHT22;26089;43.538;5.250;2022-07-06T01:44:04;23.50;94.60
16289;DHT22;26089;43.538;5.250;2022-07-06T01:46:32;23.40;94.50
16289;DHT22;26089;43.538;5.250;2022-07-06T01:48:59;23.40;94.70
16289;DHT22;26089;43.538;5.250;2022-07-06T01:51:26;23.30;94.90
16289;DHT22;26089;43.538;5.250;2022-07-06T01:53:53;23.20;95.20
16289;DHT22;26089;43.538;5.250;2022-07-06T01:56:21;23.00;95.50
16289;DHT22;26089;43.538;5.250;2022-07-06T01:58:49;22.90;95.50
16289;DHT22;26089;43.538;5.250;2022-07-06T02:01:17;23.00;95.60
16289;DHT22;26089;43.538;5.250;2022-07-06T02:03:44;23.00;95.80
16289;DHT22;26089;43.538;5.250;2022-07-06T02:06:12;22.90;95.90
16289;DHT22;26089;43.538;5.250;2022-07-06T02:08:39;22.90;95.70
16289;DHT22;26089;43.538;5.250;2022-07-06T02:11:07;22.80;95.80
16289;DHT22;26089;43.538;5.250;2022-07-06T02:13:36;22.80;96.00
16289;DHT22;26089;43.538;5.250;2022-07-06T02:16:04;22.70;96.10
16289;DHT22;26089;43.538;5.250;2022-07-06T02:18:31;22.70;96.40
16289;DHT22;26089;43.538;5.250;2022-07-06T02:20:58;22.60;96.30
16289;DHT22;26089;43.538;5.250;2022-07-06T02:23:25;22.70;96.10
16289;DHT22;26089;43.538;5.250;2022-07-06T02:25:52;22.70;96.10
16289;DHT22;26089;43.538;5.250;2022-07-06T02:28:20;22.70;95.90
16289;DHT22;26089;43.538;5.250;2022-07-06T02:30:48;22.80;96.00
16289;DHT22;26089;43.538;5.250;2022-07-06T02:33:15;22.80;96.10
16289;DHT22;26089;43.538;5.250;2022-07-06T02:35:42;22.80;95.80
16289;DHT22;26089;43.538;5.250;2022-07-06T02:38:09;22.80;96.10
16289;DHT22;26089;43.538;5.250;2022-07-06T02:40:36;22.80;96.00
16289;DHT22;26089;43.538;5.250;2022-07-06T02:43:04;22.80;96.20
16289;DHT22;26089;43.538;5.250;2022-07-06T02:45:31;22.70;95.90
16289;DHT22;26089;43.538;5.250;2022-07-06T02:47:59;22.70;96.30
16289;DHT22;26089;43.538;5.250;2022-07-06T02:50:26;22.60;96.20
16289;DHT22;26089;43.538;5.250;2022-07-06T02:52:53;22.60;96.60
16289;DHT22;26089;43.538;5.250;2022-07-06T02:55:21;22.50;96.40
16289;DHT22;26089;43.538;5.250;2022-07-06T02:57:48;22.50;96.30
16289;DHT22;26089;43.538;5.250;2022-07-06T03:00:15;22.60;96.40
16289;DHT22;26089;43.538;5.250;2022-07-06T03:02:42;22.50;96.50
16289;DHT22;26089;43.538;5.250;2022-07-06T03:05:10;22.50;96.50
16289;DHT22;26089;43.538;5.250;2022-07-06T03:07:37;22.50;96.40
16289;DHT22;26089;43.538;5.250;2022-07-06T03:10:05;22.50;96.70
16289;DHT22;26089;43.538;5.250;2022-07-06T03:12:33;22.40;96.70
16289;DHT22;26089;43.538;5.250;2022-07-06T03:15:00;22.40;96.70
16289;DHT22;26089;43.538;5.250;2022-07-06T03:17:27;22.40;96.80
16289;DHT22;26089;43.538;5.250;2022-07-06T03:19:54;22.40;97.00
16289;DHT22;26089;43.538;5.250;2022-07-06T03:22:22;22.30;96.80
16289;DHT22;26089;43.538;5.250;2022-07-06T03:24:49;22.30;96.80
16289;DHT22;26089;43.538;5.250;2022-07-06T03:27:16;22.30;97.00
16289;DHT22;26089;43.538;5.250;2022-07-06T03:29:43;22.20;97.20
16289;DHT22;26089;43.538;5.250;2022-07-06T03:32:10;22.20;97.40
16289;DHT22;26089;43.538;5.250;2022-07-06T03:34:37;22.20;97.40
16289;DHT22;26089;43.538;5.250;2022-07-06T03:37:04;22.20;97.40
16289;DHT22;26089;43.538;5.250;2022-07-06T03:39:33;22.20;97.30
16289;DHT22;26089;43.538;5.250;2022-07-06T03:42:00;22.10;97.80
16289;DHT22;26089;43.538;5.250;2022-07-06T03:44:27;22.10;97.80
16289;DHT22;26089;43.538;5.250;2022-07-06T03:46:54;22.10;97.80
16289;DHT22;26089;43.538;5.250;2022-07-06T03:49:21;22.10;98.20
16289;DHT22;26089;43.538;5.250;2022-07-06T03:51:52;22.00;98.00
16289;DHT22;26089;43.538;5.250;2022-07-06T03:54:19;21.90;98.40
16289;DHT22;26089;43.538;5.250;2022-07-06T03:56:48;21.60;98.60
16289;DHT22;26089;43.538;5.250;2022-07-06T03:59:15;21.60;98.90
16289;DHT22;26089;43.538;5.250;2022-07-06T04:01:42;21.60;98.90
16289;DHT22;26089;43.538;5.250;2022-07-06T04:04:09;21.50;99.10
16289;DHT22;26089;43.538;5.250;2022-07-06T04:06:36;21.50;99.20
16289;DHT22;26089;43.538;5.250;2022-07-06T04:09:03;21.50;99.20
16289;DHT22;26089;43.538;5.250;2022-07-06T04:11:30;21.50;99.30
16289;DHT22;26089;43.538;5.250;2022-07-06T04:13:59;21.40;99.40
16289;DHT22;26089;43.538;5.250;2022-07-06T04:16:26;21.40;99.40
16289;DHT22;26089;43.538;5.250;2022-07-06T04:18:53;21.40;99.40
16289;DHT22;26089;43.538;5.250;2022-07-06T04:21:20;21.40;99.40
16289;DHT22;26089;43.538;5.250;2022-07-06T04:23:47;21.40;99.40
16289;DHT22;26089;43.538;5.250;2022-07-06T04:26:14;21.50;99.40
16289;DHT22;26089;43.538;5.250;2022-07-06T04:28:41;21.50;99.40
16289;DHT22;26089;43.538;5.250;2022-07-06T04:31:09;21.50;99.60
16289;DHT22;26089;43.538;5.250;2022-07-06T04:33:36;21.50;99.60
16289;DHT22;26089;43.538;5.250;2022-07-06T04:36:04;21.50;99.70
16289;DHT22;26089;43.538;5.250;2022-07-06T04:38:31;21.50;99.90
16289;DHT22;26089;43.538;5.250;2022-07-06T04:40:58;21.40;99.90
16289;DHT22;26089;43.538;5.250;2022-07-06T04:43:25;21.40;99.90
16289;DHT22;26089;43.538;5.250;2022-07-06T04:45:52;21.40;99.90
16289;DHT22;26089;43.538;5.250;2022-07-06T04:48:20;21.40;99.90
16289;DHT22;26089;43.538;5.250;2022-07-06T04:50:47;21.40;99.90
16289;DHT22;26089;43.538;5.250;2022-07-06T04:53:14;21.40;99.90
16289;DHT22;26089;43.538;5.250;2022-07-06T04:55:41;21.50;99.90
16289;DHT22;26089;43.538;5.250;2022-07-06T04:58:08;21.50;99.90
16289;DHT22;26089;43.538;5.250;2022-07-06T05:00:35;21.60;99.90
16289;DHT22;26089;43.538;5.250;2022-07-06T05:03:02;21.70;99.90
16289;DHT22;26089;43.538;5.250;2022-07-06T05:05:31;21.80;99.90
16289;DHT22;26089;43.538;5.250;2022-07-06T05:07:58;21.90;99.90
16289;DHT22;26089;43.538;5.250;2022-07-06T05:10:25;22.00;99.90
16289;DHT22;26089;43.538;5.250;2022-07-06T05:12:52;22.00;99.90
16289;DHT22;26089;43.538;5.250;2022-07-06T05:15:19;21.90;99.90
16289;DHT22;26089;43.538;5.250;2022-07-06T05:17:46;22.00;99.90
16289;DHT22;26089;43.538;5.250;2022-07-06T05:20:13;22.00;99.90
16289;DHT22;26089;43.538;5.250;2022-07-06T05:22:41;22.00;99.90
16289;DHT22;26089;43.538;5.250;2022-07-06T05:25:08;21.90;99.90
16289;DHT22;26089;43.538;5.250;2022-07-06T05:27:35;21.90;99.90
16289;DHT22;26089;43.538;5.250;2022-07-06T05:30:03;22.00;99.90
16289;DHT22;26089;43.538;5.250;2022-07-06T05:32:30;22.00;99.90
16289;DHT22;26089;43.538;5.250;2022-07-06T05:34:57;21.90;99.90
16289;DHT22;26089;43.538;5.250;2022-07-06T05:37:24;22.00;99.90
16289;DHT22;26089;43.538;5.250;2022-07-06T05:39:53;21.90;99.90
16289;DHT22;26089;43.538;5.250;2022-07-06T05:42:20;22.00;99.90
16289;DHT22;26089;43.538;5.250;2022-07-06T05:44:46;22.00;99.90
16289;DHT22;26089;43.538;5.250;2022-07-06T05:47:13;22.10;99.80
16289;DHT22;26089;43.538;5.250;2022-07-06T05:49:58;22.20;99.90
16289;DHT22;26089;43.538;5.250;2022-07-06T05:52:41;22.30;99.70
16289;DHT22;26089;43.538;5.250;2022-07-06T05:55:10;22.40;99.60
16289;DHT22;26089;43.538;5.250;2022-07-06T05:57:38;22.50;99.90
16289;DHT22;26089;43.538;5.250;2022-07-06T06:00:07;22.60;99.20
16289;DHT22;26089;43.538;5.250;2022-07-06T06:02:38;22.80;99.20
16289;DHT22;26089;43.538;5.250;2022-07-06T06:05:07;23.00;98.70
16289;DHT22;26089;43.538;5.250;2022-07-06T06:07:34;23.10;99.10
16289;DHT22;26089;43.538;5.250;2022-07-06T06:10:03;23.10;98.80
16289;DHT22;26089;43.538;5.250;2022-07-06T06:12:32;23.20;98.50
16289;DHT22;26089;43.538;5.250;2022-07-06T06:14:59;23.30;98.30
16289;DHT22;26089;43.538;5.250;2022-07-06T06:17:26;23.30;98.50
16289;DHT22;26089;43.538;5.250;2022-07-06T06:19:53;23.40;98.50
16289;DHT22;26089;43.538;5.250;2022-07-06T06:22:20;23.60;98.10
16289;DHT22;26089;43.538;5.250;2022-07-06T06:24:47;23.70;98.10
16289;DHT22;26089;43.538;5.250;2022-07-06T06:27:14;23.70;97.80
16289;DHT22;26089;43.538;5.250;2022-07-06T06:29:43;23.80;97.70
16289;DHT22;26089;43.538;5.250;2022-07-06T06:32:11;23.70;97.60
16289;DHT22;26089;43.538;5.250;2022-07-06T06:34:38;23.80;97.40
16289;DHT22;26089;43.538;5.250;2022-07-06T06:37:06;24.10;97.60
16289;DHT22;26089;43.538;5.250;2022-07-06T06:39:33;24.60;96.70
16289;DHT22;26089;43.538;5.250;2022-07-06T06:42:00;24.80;96.20
16289;DHT22;26089;43.538;5.250;2022-07-06T06:44:27;24.80;95.90
16289;DHT22;26089;43.538;5.250;2022-07-06T06:46:55;25.10;96.00
16289;DHT22;26089;43.538;5.250;2022-07-06T06:49:22;25.60;95.20
16289;DHT22;26089;43.538;5.250;2022-07-06T06:51:49;25.90;94.70
16289;DHT22;26089;43.538;5.250;2022-07-06T06:54:16;26.50;94.30
16289;DHT22;26089;43.538;5.250;2022-07-06T06:56:43;27.20;93.50
16289;DHT22;26089;43.538;5.250;2022-07-06T06:59:10;27.60;92.90
16289;DHT22;26089;43.538;5.250;2022-07-06T07:01:37;28.00;92.10
16289;DHT22;26089;43.538;5.250;2022-07-06T07:04:05;28.00;92.10
16289;DHT22;26089;43.538;5.250;2022-07-06T07:06:32;27.90;92.20
16289;DHT22;26089;43.538;5.250;2022-07-06T07:09:00;28.20;92.00
16289;DHT22;26089;43.538;5.250;2022-07-06T07:11:27;28.40;91.70
16289;DHT22;26089;43.538;5.250;2022-07-06T07:13:54;28.90;91.20
16289;DHT22;26089;43.538;5.250;2022-07-06T07:16:21;28.60;91.10
16289;DHT22;26089;43.538;5.250;2022-07-06T07:18:49;28.40;91.60
16289;DHT22;26089;43.538;5.250;2022-07-06T07:21:18;27.90;91.50
16289;DHT22;26089;43.538;5.250;2022-07-06T07:23:45;27.60;91.70
16289;DHT22;26089;43.538;5.250;2022-07-06T07:26:12;27.40;92.00
16289;DHT22;26089;43.538;5.250;2022-07-06T07:28:39;27.90;91.90
16289;DHT22;26089;43.538;5.250;2022-07-06T07:31:06;28.30;91.70
16289;DHT22;26089;43.538;5.250;2022-07-06T07:33:33;28.20;91.00
16289;DHT22;26089;43.538;5.250;2022-07-06T07:36:01;27.70;91.60
16289;DHT22;26089;43.538;5.250;2022-07-06T07:38:29;27.40;91.50
16289;DHT22;26089;43.538;5.250;2022-07-06T07:40:56;27.60;92.20
16289;DHT22;26089;43.538;5.250;2022-07-06T07:43:23;28.10;91.30
16289;DHT22;26089;43.538;5.250;2022-07-06T07:45:50;27.90;91.60
16289;DHT22;26089;43.538;5.250;2022-07-06T07:48:17;28.30;91.40
16289;DHT22;26089;43.538;5.250;2022-07-06T07:50:44;28.60;90.60
16289;DHT22;26089;43.538;5.250;2022-07-06T07:53:11;28.80;90.40
16289;DHT22;26089;43.538;5.250;2022-07-06T07:55:39;28.70;90.20
16289;DHT22;26089;43.538;5.250;2022-07-06T07:58:06;28.80;90.30
16289;DHT22;26089;43.538;5.250;2022-07-06T08:00:34;28.70;90.70
16289;DHT22;26089;43.538;5.250;2022-07-06T08:03:01;28.60;90.20
16289;DHT22;26089;43.538;5.250;2022-07-06T08:05:28;28.40;90.50
16289;DHT22;26089;43.538;5.250;2022-07-06T08:07:55;28.90;90.60
16289;DHT22;26089;43.538;5.250;2022-07-06T08:10:22;29.40;90.20
16289;DHT22;26089;43.538;5.250;2022-07-06T08:12:50;29.10;89.10
16289;DHT22;26089;43.538;5.250;2022-07-06T08:15:17;28.70;90.30
16289;DHT22;26089;43.538;5.250;2022-07-06T08:17:44;28.40;90.70
16289;DHT22;26089;43.538;5.250;2022-07-06T08:20:12;28.90;91.20
16289;DHT22;26089;43.538;5.250;2022-07-06T08:22:41;29.40;89.60
16289;DHT22;26089;43.538;5.250;2022-07-06T08:25:08;29.70;89.60
16289;DHT22;26089;43.538;5.250;2022-07-06T08:27:35;29.90;88.10
16289;DHT22;26089;43.538;5.250;2022-07-06T08:30:05;29.40;88.80
16289;DHT22;26089;43.538;5.250;2022-07-06T08:32:32;29.60;89.20
16289;DHT22;26089;43.538;5.250;2022-07-06T08:34:59;29.80;87.80
16289;DHT22;26089;43.538;5.250;2022-07-06T08:37:26;29.70;87.70
16289;DHT22;26089;43.538;5.250;2022-07-06T08:39:53;29.90;87.60
16289;DHT22;26089;43.538;5.250;2022-07-06T08:42:20;29.50;87.80
16289;DHT22;26089;43.538;5.250;2022-07-06T08:44:48;29.80;87.60
16289;DHT22;26089;43.538;5.250;2022-07-06T08:47:19;30.10;88.40
16289;DHT22;26089;43.538;5.250;2022-07-06T08:49:46;30.70;87.40
16289;DHT22;26089;43.538;5.250;2022-07-06T08:52:14;31.00;85.30
16289;DHT22;26089;43.538;5.250;2022-07-06T08:54:41;30.90;85.10
16289;DHT22;26089;43.538;5.250;2022-07-06T08:57:08;30.70;86.30
16289;DHT22;26089;43.538;5.250;2022-07-06T08:59:35;30.90;86.10
16289;DHT22;26089;43.538;5.250;2022-07-06T09:02:03;31.20;85.10
16289;DHT22;26089;43.538;5.250;2022-07-06T09:04:33;31.00;85.50
16289;DHT22;26089;43.538;5.250;2022-07-06T09:07:02;31.30;84.70
16289;DHT22;26089;43.538;5.250;2022-07-06T09:09:30;31.50;83.20
16289;DHT22;26089;43.538;5.250;2022-07-06T09:11:57;31.30;84.40
16289;DHT22;26089;43.538;5.250;2022-07-06T09:14:25;31.30;84.30
16289;DHT22;26089;43.538;5.250;2022-07-06T09:17:01;31.60;83.00
16289;DHT22;26089;43.538;5.250;2022-07-06T09:19:30;31.30;83.20
16289;DHT22;26089;43.538;5.250;2022-07-06T09:21:59;31.70;84.30
16289;DHT22;26089;43.538;5.250;2022-07-06T09:24:27;31.90;82.90
16289;DHT22;26089;43.538;5.250;2022-07-06T09:26:55;32.20;82.90
16289;DHT22;26089;43.538;5.250;2022-07-06T09:29:27;32.20;81.80
16289;DHT22;26089;43.538;5.250;2022-07-06T09:31:58;31.80;82.90
16289;DHT22;26089;43.538;5.250;2022-07-06T09:34:27;32.20;83.30
16289;DHT22;26089;43.538;5.250;2022-07-06T09:37:07;32.40;81.60
16289;DHT22;26089;43.538;5.250;2022-07-06T09:39:35;32.90;81.40
16289;DHT22;26089;43.538;5.250;2022-07-06T09:42:04;33.20;79.70
16289;DHT22;26089;43.538;5.250;2022-07-06T09:44:35;33.80;78.80
16289;DHT22;26089;43.538;5.250;2022-07-06T09:47:04;33.40;77.00
16289;DHT22;26089;43.538;5.250;2022-07-06T09:49:32;33.20;78.60
16289;DHT22;26089;43.538;5.250;2022-07-06T09:52:00;33.10;78.60
16289;DHT22;26089;43.538;5.250;2022-07-06T09:54:29;33.30;78.50
16289;DHT22;26089;43.538;5.250;2022-07-06T09:56:57;33.50;78.60
16289;DHT22;26089;43.538;5.250;2022-07-06T09:59:26;33.70;77.10
16289;DHT22;26089;43.538;5.250;2022-07-06T10:01:54;33.60;76.60
16289;DHT22;26089;43.538;5.250;2022-07-06T10:04:23;33.30;77.50
16289;DHT22;26089;43.538;5.250;2022-07-06T10:06:51;33.70;76.80
16289;DHT22;26089;43.538;5.250;2022-07-06T10:09:19;33.40;76.80
16289;DHT22;26089;43.538;5.250;2022-07-06T10:11:50;33.80;77.00
16289;DHT22;26089;43.538;5.250;2022-07-06T10:14:19;33.60;76.80
16289;DHT22;26089;43.538;5.250;2022-07-06T10:16:48;33.40;76.20
16289;DHT22;26089;43.538;5.250;2022-07-06T10:19:16;33.60;77.20
16289;DHT22;26089;43.538;5.250;2022-07-06T10:21:44;34.20;76.60
16289;DHT22;26089;43.538;5.250;2022-07-06T10:24:12;34.60;76.00
16289;DHT22;26089;43.538;5.250;2022-07-06T10:26:41;34.60;75.00
16289;DHT22;26089;43.538;5.250;2022-07-06T10:29:10;34.80;75.50
16289;DHT22;26089;43.538;5.250;2022-07-06T10:31:40;34.60;74.70
16289;DHT22;26089;43.538;5.250;2022-07-06T10:34:11;34.90;75.00
16289;DHT22;26089;43.538;5.250;2022-07-06T10:36:39;35.30;73.10
16289;DHT22;26089;43.538;5.250;2022-07-06T10:39:07;35.20;74.10
16289;DHT22;26089;43.538;5.250;2022-07-06T10:41:52;35.20;73.10
16289;DHT22;26089;43.538;5.250;2022-07-06T10:44:23;34.80;73.00
16289;DHT22;26089;43.538;5.250;2022-07-06T10:46:51;35.00;74.10
16289;DHT22;26089;43.538;5.250;2022-07-06T10:49:19;35.00;74.60
16289;DHT22;26089;43.538;5.250;2022-07-06T10:51:47;35.50;73.30
16289;DHT22;26089;43.538;5.250;2022-07-06T10:54:15;35.40;72.10
16289;DHT22;26089;43.538;5.250;2022-07-06T10:56:44;35.60;72.90
16289;DHT22;26089;43.538;5.250;2022-07-06T10:59:12;35.60;71.60
16289;DHT22;26089;43.538;5.250;2022-07-06T11:02:10;34.60;72.80
16289;DHT22;26089;43.538;5.250;2022-07-06T11:04:32;34.10;73.90
16289;DHT22;26089;43.538;5.250;2022-07-06T11:07:07;33.90;73.90
16289;DHT22;26089;43.538;5.250;2022-07-06T11:09:35;34.10;74.00
16289;DHT22;26089;43.538;5.250;2022-07-06T11:12:12;34.10;74.90
16289;DHT22;26089;43.538;5.250;2022-07-06T11:14:41;34.10;74.50
16289;DHT22;26089;43.538;5.250;2022-07-06T11:17:10;34.20;74.30
16289;DHT22;26089;43.538;5.250;2022-07-06T11:19:48;34.10;74.90
16289;DHT22;26089;43.538;5.250;2022-07-06T11:22:16;34.40;74.30
16289;DHT22;26089;43.538;5.250;2022-07-06T11:24:44;34.60;74.00
16289;DHT22;26089;43.538;5.250;2022-07-06T11:27:12;34.70;74.30
16289;DHT22;26089;43.538;5.250;2022-07-06T11:29:40;34.50;73.30
16289;DHT22;26089;43.538;5.250;2022-07-06T11:32:08;34.80;73.30
16289;DHT22;26089;43.538;5.250;2022-07-06T11:34:39;34.90;72.30
16289;DHT22;26089;43.538;5.250;2022-07-06T11:37:08;35.40;72.60
16289;DHT22;26089;43.538;5.250;2022-07-06T11:39:37;36.00;72.50
16289;DHT22;26089;43.538;5.250;2022-07-06T11:42:06;36.40;71.40
16289;DHT22;26089;43.538;5.250;2022-07-06T11:44:33;36.10;70.60
16289;DHT22;26089;43.538;5.250;2022-07-06T11:47:01;36.00;70.90
16289;DHT22;26089;43.538;5.250;2022-07-06T11:49:29;36.20;70.00
16289;DHT22;26089;43.538;5.250;2022-07-06T11:51:58;36.60;69.30
16289;DHT22;26089;43.538;5.250;2022-07-06T11:54:26;37.00;67.40
16289;DHT22;26089;43.538;5.250;2022-07-06T11:56:54;36.90;68.00
16289;DHT22;26089;43.538;5.250;2022-07-06T11:59:23;37.20;67.20
16289;DHT22;26089;43.538;5.250;2022-07-06T12:01:58;36.80;68.70
16289;DHT22;26089;43.538;5.250;2022-07-06T12:04:25;37.20;68.20
16289;DHT22;26089;43.538;5.250;2022-07-06T12:06:52;37.00;67.90
16289;DHT22;26089;43.538;5.250;2022-07-06T12:09:21;36.60;68.30
16289;DHT22;26089;43.538;5.250;2022-07-06T12:11:48;36.60;69.00
16289;DHT22;26089;43.538;5.250;2022-07-06T12:14:16;36.70;68.50
16289;DHT22;26089;43.538;5.250;2022-07-06T12:16:44;36.50;68.70
16289;DHT22;26089;43.538;5.250;2022-07-06T12:19:12;37.10;68.00
16289;DHT22;26089;43.538;5.250;2022-07-06T12:21:46;37.10;67.60
16289;DHT22;26089;43.538;5.250;2022-07-06T12:24:22;36.70;68.10
16289;DHT22;26089;43.538;5.250;2022-07-06T12:26:51;36.80;68.00
16289;DHT22;26089;43.538;5.250;2022-07-06T12:29:19;36.30;68.10
16289;DHT22;26089;43.538;5.250;2022-07-06T12:31:49;36.50;69.40
16289;DHT22;26089;43.538;5.250;2022-07-06T12:34:18;36.70;69.50
16289;DHT22;26089;43.538;5.250;2022-07-06T12:36:46;36.80;67.40
16289;DHT22;26089;43.538;5.250;2022-07-06T12:39:16;36.40;68.60
16289;DHT22;26089;43.538;5.250;2022-07-06T12:41:46;37.30;68.00
16289;DHT22;26089;43.538;5.250;2022-07-06T12:44:16;37.60;67.20
16289;DHT22;26089;43.538;5.250;2022-07-06T12:46:44;37.90;67.20
16289;DHT22;26089;43.538;5.250;2022-07-06T12:49:14;37.20;66.20
16289;DHT22;26089;43.538;5.250;2022-07-06T12:51:59;36.70;67.40
16289;DHT22;26089;43.538;5.250;2022-07-06T12:54:29;37.00;67.10
16289;DHT22;26089;43.538;5.250;2022-07-06T12:57:10;36.90;66.80
16289;DHT22;26089;43.538;5.250;2022-07-06T12:59:40;36.20;66.20
16289;DHT22;26089;43.538;5.250;2022-07-06T13:02:09;35.90;66.80
16289;DHT22;26089;43.538;5.250;2022-07-06T13:04:36;35.70;66.00
16289;DHT22;26089;43.538;5.250;2022-07-06T13:07:04;35.80;67.20
16289;DHT22;26089;43.538;5.250;2022-07-06T13:09:32;35.90;66.60
16289;DHT22;26089;43.538;5.250;2022-07-06T13:11:59;36.20;66.50
16289;DHT22;26089;43.538;5.250;2022-07-06T13:14:27;36.00;65.40
16289;DHT22;26089;43.538;5.250;2022-07-06T13:16:54;36.40;66.10
16289;DHT22;26089;43.538;5.250;2022-07-06T13:19:21;36.70;64.40
16289;DHT22;26089;43.538;5.250;2022-07-06T13:21:48;37.00;64.60
16289;DHT22;26089;43.538;5.250;2022-07-06T13:24:16;36.60;66.10
16289;DHT22;26089;43.538;5.250;2022-07-06T13:26:43;36.80;64.60
16289;DHT22;26089;43.538;5.250;2022-07-06T13:29:10;36.50;65.40
16289;DHT22;26089;43.538;5.250;2022-07-06T13:31:39;36.40;66.10
16289;DHT22;26089;43.538;5.250;2022-07-06T13:34:06;36.70;65.80
16289;DHT22;26089;43.538;5.250;2022-07-06T13:36:34;36.70;64.90
16289;DHT22;26089;43.538;5.250;2022-07-06T13:39:01;37.00;64.40
16289;DHT22;26089;43.538;5.250;2022-07-06T13:41:28;36.70;65.70
16289;DHT22;26089;43.538;5.250;2022-07-06T13:43:55;37.00;66.40
16289;DHT22;26089;43.538;5.250;2022-07-06T13:46:22;37.10;66.00
16289;DHT22;26089;43.538;5.250;2022-07-06T13:48:51;37.20;65.40
16289;DHT22;26089;43.538;5.250;2022-07-06T13:51:18;37.70;64.90
16289;DHT22;26089;43.538;5.250;2022-07-06T13:53:45;37.10;64.40
16289;DHT22;26089;43.538;5.250;2022-07-06T13:56:12;36.20;64.90
16289;DHT22;26089;43.538;5.250;2022-07-06T13:58:39;36.20;65.80
16289;DHT22;26089;43.538;5.250;2022-07-06T14:01:06;36.00;65.90
16289;DHT22;26089;43.538;5.250;2022-07-06T14:03:34;36.10;66.50
16289;DHT22;26089;43.538;5.250;2022-07-06T14:06:05;36.20;64.30
16289;DHT22;26089;43.538;5.250;2022-07-06T14:08:33;35.90;64.10
16289;DHT22;26089;43.538;5.250;2022-07-06T14:11:00;35.50;64.40
16289;DHT22;26089;43.538;5.250;2022-07-06T14:13:28;34.40;65.50
16289;DHT22;26089;43.538;5.250;2022-07-06T14:15:55;33.90;67.30
16289;DHT22;26089;43.538;5.250;2022-07-06T14:18:23;33.50;69.00
16289;DHT22;26089;43.538;5.250;2022-07-06T14:20:50;33.30;69.00
16289;DHT22;26089;43.538;5.250;2022-07-06T14:23:20;33.70;68.60
16289;DHT22;26089;43.538;5.250;2022-07-06T14:25:48;33.80;68.80
16289;DHT22;26089;43.538;5.250;2022-07-06T14:28:17;33.80;69.10
16289;DHT22;26089;43.538;5.250;2022-07-06T14:30:46;34.00;69.20
16289;DHT22;26089;43.538;5.250;2022-07-06T14:33:13;34.10;69.30
16289;DHT22;26089;43.538;5.250;2022-07-06T14:35:43;34.00;70.80
16289;DHT22;26089;43.538;5.250;2022-07-06T14:38:11;34.10;69.40
16289;DHT22;26089;43.538;5.250;2022-07-06T14:40:39;34.40;69.10
16289;DHT22;26089;43.538;5.250;2022-07-06T14:43:06;34.00;69.50
16289;DHT22;26089;43.538;5.250;2022-07-06T14:45:33;34.20;69.50
16289;DHT22;26089;43.538;5.250;2022-07-06T14:48:00;34.50;67.40
16289;DHT22;26089;43.538;5.250;2022-07-06T14:50:28;34.10;67.00
16289;DHT22;26089;43.538;5.250;2022-07-06T14:52:55;33.70;68.20
16289;DHT22;26089;43.538;5.250;2022-07-06T14:55:22;33.30;68.80
16289;DHT22;26089;43.538;5.250;2022-07-06T14:57:51;33.50;66.60
16289;DHT22;26089;43.538;5.250;2022-07-06T15:00:18;33.70;66.50
16289;DHT22;26089;43.538;5.250;2022-07-06T15:02:45;33.70;68.50
16289;DHT22;26089;43.538;5.250;2022-07-06T15:05:13;33.50;69.90
16289;DHT22;26089;43.538;5.250;2022-07-06T15:07:40;33.40;69.20
16289;DHT22;26089;43.538;5.250;2022-07-06T15:10:08;33.50;68.20
16289;DHT22;26089;43.538;5.250;2022-07-06T15:12:35;33.70;67.80
16289;DHT22;26089;43.538;5.250;2022-07-06T15:15:04;33.40;68.10
16289;DHT22;26089;43.538;5.250;2022-07-06T15:17:32;33.10;68.70
16289;DHT22;26089;43.538;5.250;2022-07-06T15:19:59;33.30;68.30
16289;DHT22;26089;43.538;5.250;2022-07-06T15:22:26;33.50;66.70
16289;DHT22;26089;43.538;5.250;2022-07-06T15:24:53;33.70;67.80
16289;DHT22;26089;43.538;5.250;2022-07-06T15:27:21;33.70;67.30
16289;DHT22;26089;43.538;5.250;2022-07-06T15:29:48;33.40;66.50
16289;DHT22;26089;43.538;5.250;2022-07-06T15:32:16;33.50;66.10
16289;DHT22;26089;43.538;5.250;2022-07-06T15:34:43;33.50;66.20